sensor_id;sensor_type;location;lat;lon;timestamp;P1;durP1;ratioP1;P2;durP2;ratioP2
38797;SDS011;24546;52.240;16.826;2022-12-19T00:03:47;115.18;;;46.17;;
38797;SDS011;24546;52.240;16.826;2022-12-19T00:08:58;117.65;;;44.15;;
38797;SDS011;24546;52.240;16.826;2022-12-19T00:13:59;109.35;;;44.20;;
38797;SDS011;24546;52.240;16.826;2022-12-19T00:19:01;112.78;;;45.35;;
38797;SDS011;24546;52.240;16.826;2022-12-19T00:24:03;123.22;;;49.00;;
38797;SDS011;24546;52.240;16.826;2022-12-19T00:29:06;123.25;;;50.10;;
38797;SDS011;24546;52.240;16.826;2022-12-19T00:34:08;124.57;;;49.25;;
38797;SDS011;24546;52.240;16.826;2022-12-19T00:39:08;115.90;;;47.08;;
38797;SDS011;24546;52.240;16.826;2022-12-19T00:44:13;121.90;;;47.17;;
38797;SDS011;24546;52.240;16.826;2022-12-19T00:49:14;114.18;;;45.70;;
38797;SDS011;24546;52.240;16.826;2022-12-19T00:54:15;106.50;;;45.83;;
38797;SDS011;24546;52.240;16.826;2022-12-19T00:59:16;125.47;;;48.90;;
38797;SDS011;24546;52.240;16.826;2022-12-19T01:04:17;107.57;;;46.15;;
38797;SDS011;24546;52.240;16.826;2022-12-19T01:09:18;110.28;;;47.88;;
38797;SDS011;24546;52.240;16.826;2022-12-19T01:14:22;102.15;;;43.72;;
38797;SDS011;24546;52.240;16.826;2022-12-19T01:19:24;101.50;;;42.45;;
38797;SDS011;24546;52.240;16.826;2022-12-19T01:24:26;110.22;;;45.67;;
38797;SDS011;24546;52.240;16.826;2022-12-19T01:29:27;107.68;;;42.28;;
38797;SDS011;24546;52.240;16.826;2022-12-19T01:34:28;96.00;;;43.30;;
38797;SDS011;24546;52.240;16.826;2022-12-19T01:39:31;104.63;;;44.72;;
38797;SDS011;24546;52.240;16.826;2022-12-19T01:44:32;103.85;;;42.47;;
38797;SDS011;24546;52.240;16.826;2022-12-19T01:49:34;110.65;;;42.95;;
38797;SDS011;24546;52.240;16.826;2022-12-19T01:54:37;87.82;;;41.72;;
38797;SDS011;24546;52.240;16.826;2022-12-19T01:59:41;94.82;;;43.03;;
38797;SDS011;24546;52.240;16.826;2022-12-19T02:04:45;104.50;;;43.38;;
38797;SDS011;24546;52.240;16.826;2022-12-19T02:09:47;90.55;;;40.40;;
38797;SDS011;24546;52.240;16.826;2022-12-19T02:14:51;92.15;;;40.97;;
38797;SDS011;24546;52.240;16.826;2022-12-19T02:30:52;103.38;;;42.90;;
38797;SDS011;24546;52.240;16.826;2022-12-19T02:36:02;100.25;;;41.72;;
38797;SDS011;24546;52.240;16.826;2022-12-19T02:41:12;98.47;;;38.35;;
38797;SDS011;24546;52.240;16.826;2022-12-19T02:46:18;90.45;;;41.22;;
38797;SDS011;24546;52.240;16.826;2022-12-19T02:51:20;97.13;;;40.97;;
38797;SDS011;24546;52.240;16.826;2022-12-19T03:11:54;87.47;;;39.25;;
38797;SDS011;24546;52.240;16.826;2022-12-19T03:17:02;89.40;;;38.78;;
38797;SDS011;24546;52.240;16.826;2022-12-19T03:22:05;89.15;;;37.75;;
38797;SDS011;24546;52.240;16.826;2022-12-19T03:32:09;82.07;;;37.88;;
38797;SDS011;24546;52.240;16.826;2022-12-19T03:37:15;95.75;;;39.17;;
38797;SDS011;24546;52.240;16.826;2022-12-19T03:42:20;95.82;;;41.65;;
38797;SDS011;24546;52.240;16.826;2022-12-19T03:47:44;86.35;;;38.65;;
38797;SDS011;24546;52.240;16.826;2022-12-19T03:52:53;81.88;;;37.30;;
38797;SDS011;24546;52.240;16.826;2022-12-19T03:58:05;87.00;;;38.67;;
38797;SDS011;24546;52.240;16.826;2022-12-19T04:03:11;84.15;;;37.30;;
38797;SDS011;24546;52.240;16.826;2022-12-19T04:08:14;83.30;;;35.40;;
38797;SDS011;24546;52.240;16.826;2022-12-19T04:13:17;81.85;;;36.35;;
38797;SDS011;24546;52.240;16.826;2022-12-19T04:18:22;84.03;;;37.05;;
38797;SDS011;24546;52.240;16.826;2022-12-19T04:23:27;83.18;;;37.70;;
38797;SDS011;24546;52.240;16.826;2022-12-19T04:28:39;82.90;;;36.53;;
38797;SDS011;24546;52.240;16.826;2022-12-19T04:33:44;82.45;;;35.00;;
38797;SDS011;24546;52.240;16.826;2022-12-19T04:38:45;76.63;;;35.55;;
38797;SDS011;24546;52.240;16.826;2022-12-19T04:43:46;86.10;;;38.45;;
38797;SDS011;24546;52.240;16.826;2022-12-19T04:48:47;92.63;;;38.20;;
38797;SDS011;24546;52.240;16.826;2022-12-19T04:53:48;89.70;;;37.63;;
38797;SDS011;24546;52.240;16.826;2022-12-19T04:58:48;84.53;;;34.45;;
38797;SDS011;24546;52.240;16.826;2022-12-19T05:03:54;74.50;;;34.43;;
38797;SDS011;24546;52.240;16.826;2022-12-19T05:08:55;81.85;;;32.55;;
38797;SDS011;24546;52.240;16.826;2022-12-19T05:13:57;76.25;;;34.28;;
38797;SDS011;24546;52.240;16.826;2022-12-19T05:18:58;72.90;;;31.40;;
38797;SDS011;24546;52.240;16.826;2022-12-19T05:24:00;76.40;;;33.60;;
38797;SDS011;24546;52.240;16.826;2022-12-19T05:29:01;83.78;;;32.25;;
38797;SDS011;24546;52.240;16.826;2022-12-19T05:34:02;75.53;;;35.53;;
38797;SDS011;24546;52.240;16.826;2022-12-19T05:39:03;88.95;;;36.97;;
38797;SDS011;24546;52.240;16.826;2022-12-19T05:44:04;83.93;;;36.67;;
38797;SDS011;24546;52.240;16.826;2022-12-19T05:49:04;74.95;;;34.78;;
38797;SDS011;24546;52.240;16.826;2022-12-19T05:54:05;73.97;;;32.17;;
38797;SDS011;24546;52.240;16.826;2022-12-19T05:59:06;82.47;;;34.80;;
38797;SDS011;24546;52.240;16.826;2022-12-19T06:04:07;74.22;;;31.38;;
38797;SDS011;24546;52.240;16.826;2022-12-19T06:09:08;73.25;;;32.67;;
38797;SDS011;24546;52.240;16.826;2022-12-19T06:14:08;77.82;;;32.00;;
38797;SDS011;24546;52.240;16.826;2022-12-19T06:19:09;74.85;;;33.67;;
38797;SDS011;24546;52.240;16.826;2022-12-19T06:24:10;74.85;;;33.17;;
38797;SDS011;24546;52.240;16.826;2022-12-19T06:29:11;77.00;;;32.22;;
38797;SDS011;24546;52.240;16.826;2022-12-19T06:34:11;90.93;;;33.85;;
38797;SDS011;24546;52.240;16.826;2022-12-19T06:39:13;74.55;;;35.10;;
38797;SDS011;24546;52.240;16.826;2022-12-19T06:44:15;77.68;;;31.70;;
38797;SDS011;24546;52.240;16.826;2022-12-19T06:49:16;68.78;;;33.17;;
38797;SDS011;24546;52.240;16.826;2022-12-19T06:54:17;83.13;;;36.40;;
38797;SDS011;24546;52.240;16.826;2022-12-19T06:59:18;76.28;;;33.58;;
38797;SDS011;24546;52.240;16.826;2022-12-19T07:04:21;83.45;;;34.65;;
38797;SDS011;24546;52.240;16.826;2022-12-19T07:14:27;76.97;;;31.65;;
38797;SDS011;24546;52.240;16.826;2022-12-19T07:19:28;71.30;;;33.47;;
38797;SDS011;24546;52.240;16.826;2022-12-19T07:24:31;86.13;;;36.97;;
38797;SDS011;24546;52.240;16.826;2022-12-19T07:29:33;80.25;;;34.55;;
38797;SDS011;24546;52.240;16.826;2022-12-19T07:34:34;72.95;;;33.92;;
38797;SDS011;24546;52.240;16.826;2022-12-19T07:39:35;68.85;;;31.25;;
38797;SDS011;24546;52.240;16.826;2022-12-19T07:44:36;76.90;;;33.47;;
38797;SDS011;24546;52.240;16.826;2022-12-19T07:49:36;78.15;;;33.50;;
38797;SDS011;24546;52.240;16.826;2022-12-19T07:54:37;61.25;;;30.45;;
38797;SDS011;24546;52.240;16.826;2022-12-19T07:59:38;64.60;;;30.83;;
38797;SDS011;24546;52.240;16.826;2022-12-19T08:04:39;79.72;;;32.97;;
38797;SDS011;24546;52.240;16.826;2022-12-19T08:09:40;68.78;;;32.42;;
38797;SDS011;24546;52.240;16.826;2022-12-19T08:14:40;74.00;;;33.63;;
38797;SDS011;24546;52.240;16.826;2022-12-19T08:19:41;68.13;;;31.92;;
38797;SDS011;24546;52.240;16.826;2022-12-19T08:24:42;67.80;;;32.55;;
38797;SDS011;24546;52.240;16.826;2022-12-19T08:29:43;72.13;;;33.75;;
38797;SDS011;24546;52.240;16.826;2022-12-19T08:34:43;84.18;;;39.70;;
38797;SDS011;24546;52.240;16.826;2022-12-19T08:39:44;83.75;;;37.03;;
38797;SDS011;24546;52.240;16.826;2022-12-19T08:44:45;82.43;;;39.25;;
38797;SDS011;24546;52.240;16.826;2022-12-19T08:49:46;86.72;;;40.35;;
38797;SDS011;24546;52.240;16.826;2022-12-19T08:54:47;68.75;;;32.58;;
38797;SDS011;24546;52.240;16.826;2022-12-19T08:59:47;61.75;;;29.70;;
38797;SDS011;24546;52.240;16.826;2022-12-19T09:04:48;66.93;;;32.38;;
38797;SDS011;24546;52.240;16.826;2022-12-19T09:09:49;66.15;;;30.58;;
38797;SDS011;24546;52.240;16.826;2022-12-19T09:14:50;56.03;;;27.65;;
38797;SDS011;24546;52.240;16.826;2022-12-19T09:19:50;58.88;;;26.63;;
38797;SDS011;24546;52.240;16.826;2022-12-19T09:24:51;56.75;;;25.63;;
38797;SDS011;24546;52.240;16.826;2022-12-19T09:29:52;67.57;;;30.33;;
38797;SDS011;24546;52.240;16.826;2022-12-19T09:34:53;48.63;;;23.55;;
38797;SDS011;24546;52.240;16.826;2022-12-19T09:39:54;52.40;;;27.20;;
38797;SDS011;24546;52.240;16.826;2022-12-19T09:44:58;47.80;;;24.45;;
38797;SDS011;24546;52.240;16.826;2022-12-19T09:50:22;55.35;;;26.90;;
38797;SDS011;24546;52.240;16.826;2022-12-19T09:55:40;49.40;;;25.38;;
38797;SDS011;24546;52.240;16.826;2022-12-19T10:00:43;47.42;;;23.10;;
38797;SDS011;24546;52.240;16.826;2022-12-19T10:10:59;51.05;;;24.90;;
38797;SDS011;24546;52.240;16.826;2022-12-19T10:21:20;47.70;;;23.05;;
38797;SDS011;24546;52.240;16.826;2022-12-19T10:27:05;51.72;;;27.13;;
38797;SDS011;24546;52.240;16.826;2022-12-19T10:32:10;48.30;;;23.65;;
38797;SDS011;24546;52.240;16.826;2022-12-19T10:37:25;49.80;;;22.73;;
38797;SDS011;24546;52.240;16.826;2022-12-19T10:42:32;49.30;;;22.38;;
38797;SDS011;24546;52.240;16.826;2022-12-19T10:47:54;46.15;;;23.73;;
38797;SDS011;24546;52.240;16.826;2022-12-19T11:03:19;40.75;;;20.55;;
38797;SDS011;24546;52.240;16.826;2022-12-19T11:13:28;55.50;;;25.38;;
38797;SDS011;24546;52.240;16.826;2022-12-19T11:18:45;39.50;;;20.85;;
38797;SDS011;24546;52.240;16.826;2022-12-19T11:23:48;42.33;;;20.92;;
38797;SDS011;24546;52.240;16.826;2022-12-19T11:29:00;40.80;;;20.52;;
38797;SDS011;24546;52.240;16.826;2022-12-19T11:34:05;54.80;;;21.35;;
38797;SDS011;24546;52.240;16.826;2022-12-19T11:44:38;42.25;;;22.40;;
38797;SDS011;24546;52.240;16.826;2022-12-19T11:50:10;48.35;;;21.70;;
38797;SDS011;24546;52.240;16.826;2022-12-19T11:55:17;37.30;;;18.33;;
38797;SDS011;24546;52.240;16.826;2022-12-19T12:00:23;41.92;;;23.08;;
38797;SDS011;24546;52.240;16.826;2022-12-19T12:10:49;38.15;;;19.98;;
38797;SDS011;24546;52.240;16.826;2022-12-19T12:16:12;39.10;;;21.13;;
38797;SDS011;24546;52.240;16.826;2022-12-19T12:21:23;42.22;;;22.05;;
38797;SDS011;24546;52.240;16.826;2022-12-19T12:26:28;51.42;;;26.20;;
38797;SDS011;24546;52.240;16.826;2022-12-19T12:31:45;46.55;;;23.42;;
38797;SDS011;24546;52.240;16.826;2022-12-19T12:37:24;47.95;;;22.95;;
38797;SDS011;24546;52.240;16.826;2022-12-19T12:47:48;46.50;;;23.42;;
38797;SDS011;24546;52.240;16.826;2022-12-19T12:52:54;59.08;;;32.63;;
38797;SDS011;24546;52.240;16.826;2022-12-19T12:57:58;59.05;;;34.42;;
38797;SDS011;24546;52.240;16.826;2022-12-19T13:03:09;48.85;;;27.38;;
38797;SDS011;24546;52.240;16.826;2022-12-19T13:13:50;51.17;;;23.00;;
38797;SDS011;24546;52.240;16.826;2022-12-19T13:19:12;44.55;;;22.55;;
38797;SDS011;24546;52.240;16.826;2022-12-19T13:24:18;53.58;;;26.23;;
38797;SDS011;24546;52.240;16.826;2022-12-19T13:29:25;45.45;;;22.00;;
38797;SDS011;24546;52.240;16.826;2022-12-19T13:34:32;44.08;;;22.10;;
38797;SDS011;24546;52.240;16.826;2022-12-19T13:44:52;46.28;;;23.20;;
38797;SDS011;24546;52.240;16.826;2022-12-19T13:49:56;46.33;;;23.85;;
38797;SDS011;24546;52.240;16.826;2022-12-19T13:54:57;51.83;;;24.48;;
38797;SDS011;24546;52.240;16.826;2022-12-19T13:59:59;47.42;;;23.08;;
38797;SDS011;24546;52.240;16.826;2022-12-19T14:10:26;59.15;;;24.52;;
38797;SDS011;24546;52.240;16.826;2022-12-19T14:15:34;41.65;;;22.05;;
38797;SDS011;24546;52.240;16.826;2022-12-19T14:20:37;45.03;;;23.40;;
38797;SDS011;24546;52.240;16.826;2022-12-19T14:25:42;48.45;;;22.67;;
38797;SDS011;24546;52.240;16.826;2022-12-19T14:30:49;41.65;;;22.90;;
38797;SDS011;24546;52.240;16.826;2022-12-19T14:35:56;43.78;;;23.13;;
38797;SDS011;24546;52.240;16.826;2022-12-19T14:40:58;43.33;;;21.23;;
38797;SDS011;24546;52.240;16.826;2022-12-19T14:56:44;49.28;;;26.80;;
38797;SDS011;24546;52.240;16.826;2022-12-19T15:01:50;53.50;;;26.17;;
38797;SDS011;24546;52.240;16.826;2022-12-19T15:06:58;47.63;;;24.58;;
38797;SDS011;24546;52.240;16.826;2022-12-19T15:12:07;47.90;;;24.42;;
38797;SDS011;24546;52.240;16.826;2022-12-19T15:17:30;44.42;;;23.55;;
38797;SDS011;24546;52.240;16.826;2022-12-19T15:22:31;48.78;;;23.05;;
38797;SDS011;24546;52.240;16.826;2022-12-19T15:27:32;51.38;;;25.20;;
38797;SDS011;24546;52.240;16.826;2022-12-19T15:32:33;58.60;;;28.50;;
38797;SDS011;24546;52.240;16.826;2022-12-19T15:37:34;47.75;;;25.33;;
38797;SDS011;24546;52.240;16.826;2022-12-19T15:42:35;52.17;;;28.55;;
38797;SDS011;24546;52.240;16.826;2022-12-19T15:47:36;47.95;;;25.55;;
38797;SDS011;24546;52.240;16.826;2022-12-19T15:52:37;49.70;;;24.95;;
38797;SDS011;24546;52.240;16.826;2022-12-19T15:57:38;53.28;;;26.35;;
38797;SDS011;24546;52.240;16.826;2022-12-19T16:02:42;62.42;;;28.42;;
38797;SDS011;24546;52.240;16.826;2022-12-19T16:07:43;57.45;;;28.38;;
38797;SDS011;24546;52.240;16.826;2022-12-19T16:12:49;58.70;;;27.73;;
38797;SDS011;24546;52.240;16.826;2022-12-19T16:17:55;57.53;;;27.55;;
38797;SDS011;24546;52.240;16.826;2022-12-19T16:22:57;51.78;;;26.63;;
38797;SDS011;24546;52.240;16.826;2022-12-19T16:27:59;54.13;;;27.20;;
38797;SDS011;24546;52.240;16.826;2022-12-19T16:33:02;43.33;;;22.40;;
38797;SDS011;24546;52.240;16.826;2022-12-19T16:38:03;47.42;;;25.38;;
38797;SDS011;24546;52.240;16.826;2022-12-19T16:43:05;43.38;;;23.02;;
38797;SDS011;24546;52.240;16.826;2022-12-19T16:48:19;45.35;;;24.27;;
38797;SDS011;24546;52.240;16.826;2022-12-19T16:53:23;49.25;;;27.27;;
38797;SDS011;24546;52.240;16.826;2022-12-19T16:58:25;51.85;;;26.08;;
38797;SDS011;24546;52.240;16.826;2022-12-19T17:03:31;57.00;;;29.35;;
38797;SDS011;24546;52.240;16.826;2022-12-19T17:08:40;44.42;;;26.38;;
38797;SDS011;24546;52.240;16.826;2022-12-19T17:13:41;49.03;;;26.17;;
38797;SDS011;24546;52.240;16.826;2022-12-19T17:18:44;58.75;;;30.58;;
38797;SDS011;24546;52.240;16.826;2022-12-19T17:23:46;50.33;;;27.38;;
38797;SDS011;24546;52.240;16.826;2022-12-19T17:28:48;55.25;;;27.98;;
38797;SDS011;24546;52.240;16.826;2022-12-19T17:33:49;53.13;;;27.00;;
38797;SDS011;24546;52.240;16.826;2022-12-19T17:38:50;60.70;;;27.55;;
38797;SDS011;24546;52.240;16.826;2022-12-19T17:43:51;68.78;;;32.83;;
38797;SDS011;24546;52.240;16.826;2022-12-19T17:48:53;65.72;;;31.50;;
38797;SDS011;24546;52.240;16.826;2022-12-19T17:53:53;62.95;;;31.13;;
38797;SDS011;24546;52.240;16.826;2022-12-19T17:58:55;58.20;;;29.98;;
38797;SDS011;24546;52.240;16.826;2022-12-19T18:03:55;60.42;;;30.05;;
38797;SDS011;24546;52.240;16.826;2022-12-19T18:08:57;65.80;;;31.02;;
38797;SDS011;24546;52.240;16.826;2022-12-19T18:14:01;65.72;;;32.58;;
38797;SDS011;24546;52.240;16.826;2022-12-19T18:19:03;72.45;;;33.47;;
38797;SDS011;24546;52.240;16.826;2022-12-19T18:24:08;65.90;;;33.10;;
38797;SDS011;24546;52.240;16.826;2022-12-19T18:29:12;71.30;;;33.63;;
38797;SDS011;24546;52.240;16.826;2022-12-19T18:34:19;72.53;;;33.90;;
38797;SDS011;24546;52.240;16.826;2022-12-19T18:39:24;64.47;;;31.40;;
38797;SDS011;24546;52.240;16.826;2022-12-19T18:44:26;67.45;;;30.73;;
38797;SDS011;24546;52.240;16.826;2022-12-19T18:49:27;70.32;;;33.55;;
38797;SDS011;24546;52.240;16.826;2022-12-19T18:54:28;77.63;;;37.05;;
38797;SDS011;24546;52.240;16.826;2022-12-19T18:59:29;66.15;;;32.63;;
38797;SDS011;24546;52.240;16.826;2022-12-19T19:04:30;76.93;;;36.15;;
38797;SDS011;24546;52.240;16.826;2022-12-19T19:09:31;71.63;;;35.63;;
38797;SDS011;24546;52.240;16.826;2022-12-19T19:14:57;77.53;;;37.97;;
38797;SDS011;24546;52.240;16.826;2022-12-19T19:19:58;76.10;;;36.38;;
38797;SDS011;24546;52.240;16.826;2022-12-19T19:25:00;80.97;;;36.38;;
38797;SDS011;24546;52.240;16.826;2022-12-19T19:30:02;85.07;;;36.28;;
38797;SDS011;24546;52.240;16.826;2022-12-19T19:35:04;74.20;;;35.28;;
38797;SDS011;24546;52.240;16.826;2022-12-19T19:40:07;79.18;;;34.38;;
38797;SDS011;24546;52.240;16.826;2022-12-19T19:45:09;94.30;;;38.33;;
38797;SDS011;24546;52.240;16.826;2022-12-19T19:50:10;79.03;;;35.03;;
38797;SDS011;24546;52.240;16.826;2022-12-19T19:55:12;91.25;;;38.15;;
38797;SDS011;24546;52.240;16.826;2022-12-19T20:00:16;87.05;;;39.10;;
38797;SDS011;24546;52.240;16.826;2022-12-19T20:05:17;85.50;;;38.85;;
38797;SDS011;24546;52.240;16.826;2022-12-19T20:10:18;82.43;;;35.75;;
38797;SDS011;24546;52.240;16.826;2022-12-19T20:15:19;83.50;;;38.35;;
38797;SDS011;24546;52.240;16.826;2022-12-19T20:20:20;83.10;;;36.70;;
38797;SDS011;24546;52.240;16.826;2022-12-19T20:25:20;81.05;;;37.80;;
38797;SDS011;24546;52.240;16.826;2022-12-19T20:30:21;89.75;;;38.28;;
38797;SDS011;24546;52.240;16.826;2022-12-19T20:35:22;88.32;;;40.45;;
38797;SDS011;24546;52.240;16.826;2022-12-19T20:40:23;86.13;;;37.90;;
38797;SDS011;24546;52.240;16.826;2022-12-19T20:45:24;88.70;;;37.13;;
38797;SDS011;24546;52.240;16.826;2022-12-19T20:50:25;88.13;;;38.40;;
38797;SDS011;24546;52.240;16.826;2022-12-19T20:55:26;80.20;;;36.42;;
38797;SDS011;24546;52.240;16.826;2022-12-19T21:00:27;89.97;;;38.38;;
38797;SDS011;24546;52.240;16.826;2022-12-19T21:05:28;83.43;;;36.92;;
38797;SDS011;24546;52.240;16.826;2022-12-19T21:10:29;88.18;;;36.28;;
38797;SDS011;24546;52.240;16.826;2022-12-19T21:15:30;89.22;;;36.13;;
38797;SDS011;24546;52.240;16.826;2022-12-19T21:20:34;87.22;;;34.88;;
38797;SDS011;24546;52.240;16.826;2022-12-19T21:25:36;91.00;;;38.35;;
38797;SDS011;24546;52.240;16.826;2022-12-19T21:30:37;101.05;;;39.40;;
38797;SDS011;24546;52.240;16.826;2022-12-19T21:35:38;86.22;;;37.08;;
38797;SDS011;24546;52.240;16.826;2022-12-19T21:40:39;85.00;;;37.45;;
38797;SDS011;24546;52.240;16.826;2022-12-19T21:45:40;85.00;;;39.05;;
38797;SDS011;24546;52.240;16.826;2022-12-19T21:50:41;88.97;;;37.42;;
38797;SDS011;24546;52.240;16.826;2022-12-19T21:55:41;83.05;;;37.45;;
38797;SDS011;24546;52.240;16.826;2022-12-19T22:00:42;92.60;;;37.60;;
38797;SDS011;24546;52.240;16.826;2022-12-19T22:05:43;78.97;;;34.78;;
38797;SDS011;24546;52.240;16.826;2022-12-19T22:10:44;90.57;;;37.20;;
38797;SDS011;24546;52.240;16.826;2022-12-19T22:15:45;76.18;;;35.80;;
38797;SDS011;24546;52.240;16.826;2022-12-19T22:20:46;86.90;;;38.20;;
38797;SDS011;24546;52.240;16.826;2022-12-19T22:25:47;93.55;;;37.25;;
38797;SDS011;24546;52.240;16.826;2022-12-19T22:30:48;83.28;;;35.90;;
38797;SDS011;24546;52.240;16.826;2022-12-19T22:35:49;84.28;;;37.55;;
38797;SDS011;24546;52.240;16.826;2022-12-19T22:40:50;84.93;;;36.85;;
38797;SDS011;24546;52.240;16.826;2022-12-19T22:45:51;90.57;;;39.80;;
38797;SDS011;24546;52.240;16.826;2022-12-19T22:50:52;82.18;;;36.33;;
38797;SDS011;24546;52.240;16.826;2022-12-19T22:55:54;91.85;;;37.17;;
38797;SDS011;24546;52.240;16.826;2022-12-19T23:00:54;88.80;;;40.83;;
38797;SDS011;24546;52.240;16.826;2022-12-19T23:05:56;95.65;;;39.75;;
38797;SDS011;24546;52.240;16.826;2022-12-19T23:10:56;85.93;;;35.55;;
38797;SDS011;24546;52.240;16.826;2022-12-19T23:15:58;86.60;;;38.03;;
38797;SDS011;24546;52.240;16.826;2022-12-19T23:21:06;79.00;;;35.38;;
38797;SDS011;24546;52.240;16.826;2022-12-19T23:26:16;86.65;;;38.97;;
38797;SDS011;24546;52.240;16.826;2022-12-19T23:31:21;71.70;;;33.05;;
38797;SDS011;24546;52.240;16.826;2022-12-19T23:36:23;70.43;;;33.92;;
38797;SDS011;24546;52.240;16.826;2022-12-19T23:41:25;71.55;;;32.95;;
38797;SDS011;24546;52.240;16.826;2022-12-19T23:46:26;71.13;;;31.92;;
38797;SDS011;24546;52.240;16.826;2022-12-19T23:51:27;69.18;;;32.30;;
38797;SDS011;24546;52.240;16.826;2022-12-19T23:56:29;74.78;;;32.40;;
